sensor_id;sensor_type;location;lat;lon;timestamp;pressure;altitude;pressure_sealevel;temperature
34310;BMP280;61664;48.112;11.662;2024-01-16T00:01:56;94732.47;;;1.74
34310;BMP280;61664;48.112;11.662;2024-01-16T00:04:23;94721.66;;;1.69
34310;BMP280;61664;48.112;11.662;2024-01-16T00:06:50;94725.53;;;1.64
34310;BMP280;61664;48.112;11.662;2024-01-16T00:09:17;94729.97;;;1.67
34310;BMP280;61664;48.112;11.662;2024-01-16T00:11:44;94741.97;;;1.68
34310;BMP280;61664;48.112;11.662;2024-01-16T00:14:11;94703.34;;;1.45
34310;BMP280;61664;48.112;11.662;2024-01-16T00:16:47;94722.63;;;1.59
34310;BMP280;61664;48.112;11.662;2024-01-16T00:19:15;94735.78;;;1.59
34310;BMP280;61664;48.112;11.662;2024-01-16T00:21:44;94737.63;;;1.62
34310;BMP280;61664;48.112;11.662;2024-01-16T00:24:14;94736.28;;;1.54
34310;BMP280;61664;48.112;11.662;2024-01-16T00:26:41;94742.94;;;1.58
34310;BMP280;61664;48.112;11.662;2024-01-16T00:29:08;94732.50;;;1.55
34310;BMP280;61664;48.112;11.662;2024-01-16T00:31:39;94745.91;;;1.60
34310;BMP280;61664;48.112;11.662;2024-01-16T00:34:06;94722.50;;;1.46
34310;BMP280;61664;48.112;11.662;2024-01-16T00:36:34;94742.38;;;1.51
34310;BMP280;61664;48.112;11.662;2024-01-16T00:39:01;94738.63;;;1.48
34310;BMP280;61664;48.112;11.662;2024-01-16T00:41:29;94746.13;;;1.50
34310;BMP280;61664;48.112;11.662;2024-01-16T00:43:56;94740.19;;;1.45
34310;BMP280;61664;48.112;11.662;2024-01-16T00:46:23;94749.84;;;1.52
34310;BMP280;61664;48.112;11.662;2024-01-16T00:48:50;94751.13;;;1.44
34310;BMP280;61664;48.112;11.662;2024-01-16T00:51:17;94753.38;;;1.45
34310;BMP280;61664;48.112;11.662;2024-01-16T00:53:44;94751.53;;;1.42
34310;BMP280;61664;48.112;11.662;2024-01-16T00:56:11;94760.53;;;1.45
34310;BMP280;61664;48.112;11.662;2024-01-16T00:58:40;94765.25;;;1.54
34310;BMP280;61664;48.112;11.662;2024-01-16T01:01:07;94754.84;;;1.46
34310;BMP280;61664;48.112;11.662;2024-01-16T01:03:34;94753.44;;;1.42
34310;BMP280;61664;48.112;11.662;2024-01-16T01:06:01;94770.22;;;1.48
34310;BMP280;61664;48.112;11.662;2024-01-16T01:08:28;94778.47;;;1.50
34310;BMP280;61664;48.112;11.662;2024-01-16T01:10:55;94765.03;;;1.44
34310;BMP280;61664;48.112;11.662;2024-01-16T01:13:22;94781.84;;;1.51
34310;BMP280;61664;48.112;11.662;2024-01-16T01:15:51;94780.75;;;1.48
34310;BMP280;61664;48.112;11.662;2024-01-16T01:18:21;94777.88;;;1.42
34310;BMP280;61664;48.112;11.662;2024-01-16T01:20:49;94776.84;;;1.36
34310;BMP280;61664;48.112;11.662;2024-01-16T01:23:16;94780.31;;;1.33
34310;BMP280;61664;48.112;11.662;2024-01-16T01:25:43;94790.16;;;1.29
34310;BMP280;61664;48.112;11.662;2024-01-16T01:28:10;94786.94;;;1.22
34310;BMP280;61664;48.112;11.662;2024-01-16T01:30:38;94783.00;;;1.10
34310;BMP280;61664;48.112;11.662;2024-01-16T01:33:05;94795.28;;;1.16
34310;BMP280;61664;48.112;11.662;2024-01-16T01:35:32;94802.50;;;1.12
34310;BMP280;61664;48.112;11.662;2024-01-16T01:37:59;94808.19;;;1.11
34310;BMP280;61664;48.112;11.662;2024-01-16T01:40:26;94810.44;;;1.09
34310;BMP280;61664;48.112;11.662;2024-01-16T01:42:53;94813.81;;;1.09
34310;BMP280;61664;48.112;11.662;2024-01-16T01:45:20;94820.53;;;1.14
34310;BMP280;61664;48.112;11.662;2024-01-16T01:47:48;94821.25;;;1.14
34310;BMP280;61664;48.112;11.662;2024-01-16T01:50:16;94833.19;;;1.19
34310;BMP280;61664;48.112;11.662;2024-01-16T01:52:43;94826.47;;;1.18
34310;BMP280;61664;48.112;11.662;2024-01-16T01:55:13;94825.31;;;1.19
34310;BMP280;61664;48.112;11.662;2024-01-16T01:57:41;94832.41;;;1.22
34310;BMP280;61664;48.112;11.662;2024-01-16T02:00:11;94837.47;;;1.33
34310;BMP280;61664;48.112;11.662;2024-01-16T02:02:41;94837.38;;;1.36
34310;BMP280;61664;48.112;11.662;2024-01-16T02:05:09;94842.66;;;1.36
34310;BMP280;61664;48.112;11.662;2024-01-16T02:07:37;94835.25;;;1.31
34310;BMP280;61664;48.112;11.662;2024-01-16T02:10:05;94832.22;;;1.33
34310;BMP280;61664;48.112;11.662;2024-01-16T02:12:32;94835.16;;;1.35
34310;BMP280;61664;48.112;11.662;2024-01-16T02:14:59;94826.97;;;1.33
34310;BMP280;61664;48.112;11.662;2024-01-16T02:17:26;94825.38;;;1.35
34310;BMP280;61664;48.112;11.662;2024-01-16T02:19:53;94831.38;;;1.36
34310;BMP280;61664;48.112;11.662;2024-01-16T02:22:24;94835.78;;;1.42
34310;BMP280;61664;48.112;11.662;2024-01-16T02:24:52;94826.13;;;1.36
34310;BMP280;61664;48.112;11.662;2024-01-16T02:27:19;94838.41;;;1.42
34310;BMP280;61664;48.112;11.662;2024-01-16T02:29:45;94829.03;;;1.41
34310;BMP280;61664;48.112;11.662;2024-01-16T02:32:13;94829.78;;;1.42
34310;BMP280;61664;48.112;11.662;2024-01-16T02:34:41;94838.75;;;1.44
34310;BMP280;61664;48.112;11.662;2024-01-16T02:37:08;94838.41;;;1.42
34310;BMP280;61664;48.112;11.662;2024-01-16T02:39:35;94839.69;;;1.34
34310;BMP280;61664;48.112;11.662;2024-01-16T02:42:03;94828.50;;;1.30
34310;BMP280;61664;48.112;11.662;2024-01-16T02:44:30;94847.38;;;1.25
34310;BMP280;61664;48.112;11.662;2024-01-16T02:46:57;94842.94;;;1.22
34310;BMP280;61664;48.112;11.662;2024-01-16T02:49:24;94834.41;;;1.14
34310;BMP280;61664;48.112;11.662;2024-01-16T02:51:53;94838.25;;;1.10
34310;BMP280;61664;48.112;11.662;2024-01-16T02:54:22;94842.09;;;1.05
34310;BMP280;61664;48.112;11.662;2024-01-16T02:56:49;94839.56;;;0.98
34310;BMP280;61664;48.112;11.662;2024-01-16T02:59:16;94829.13;;;0.95
34310;BMP280;61664;48.112;11.662;2024-01-16T03:01:43;94840.44;;;0.92
34310;BMP280;61664;48.112;11.662;2024-01-16T03:04:10;94842.78;;;0.86
34310;BMP280;61664;48.112;11.662;2024-01-16T03:06:38;94833.25;;;0.72
34310;BMP280;61664;48.112;11.662;2024-01-16T03:09:05;94860.84;;;0.84
34310;BMP280;61664;48.112;11.662;2024-01-16T03:11:33;94854.91;;;0.80
34310;BMP280;61664;48.112;11.662;2024-01-16T03:14:00;94843.81;;;0.69
34310;BMP280;61664;48.112;11.662;2024-01-16T03:16:27;94851.34;;;0.67
34310;BMP280;61664;48.112;11.662;2024-01-16T03:18:55;94862.56;;;0.71
34310;BMP280;61664;48.112;11.662;2024-01-16T03:21:22;94858.16;;;0.64
34310;BMP280;61664;48.112;11.662;2024-01-16T03:23:49;94855.94;;;0.63
34310;BMP280;61664;48.112;11.662;2024-01-16T03:26:17;94863.06;;;0.62
34310;BMP280;61664;48.112;11.662;2024-01-16T03:28:44;94859.41;;;0.56
34310;BMP280;61664;48.112;11.662;2024-01-16T03:31:13;94857.59;;;0.49
34310;BMP280;61664;48.112;11.662;2024-01-16T03:33:43;94867.38;;;0.49
34310;BMP280;61664;48.112;11.662;2024-01-16T03:36:11;94860.63;;;0.48
34310;BMP280;61664;48.112;11.662;2024-01-16T03:38:41;94864.00;;;0.48
34310;BMP280;61664;48.112;11.662;2024-01-16T03:41:10;94857.38;;;0.40
34310;BMP280;61664;48.112;11.662;2024-01-16T03:46:04;94857.81;;;0.35
34310;BMP280;61664;48.112;11.662;2024-01-16T03:48:31;94853.41;;;0.32
34310;BMP280;61664;48.112;11.662;2024-01-16T03:50:58;94868.66;;;0.41
34310;BMP280;61664;48.112;11.662;2024-01-16T03:53:25;94855.94;;;0.36
34310;BMP280;61664;48.112;11.662;2024-01-16T03:55:52;94842.19;;;0.28
34310;BMP280;61664;48.112;11.662;2024-01-16T03:58:19;94838.47;;;0.25
34310;BMP280;61664;48.112;11.662;2024-01-16T04:00:46;94840.00;;;0.23
34310;BMP280;61664;48.112;11.662;2024-01-16T04:03:14;94855.53;;;0.37
34310;BMP280;61664;48.112;11.662;2024-01-16T04:05:41;94844.78;;;0.32
34310;BMP280;61664;48.112;11.662;2024-01-16T04:08:08;94846.28;;;0.29
34310;BMP280;61664;48.112;11.662;2024-01-16T04:10:35;94857.75;;;0.39
34310;BMP280;61664;48.112;11.662;2024-01-16T04:15:30;94862.59;;;0.44
34310;BMP280;61664;48.112;11.662;2024-01-16T04:17:57;94849.19;;;0.35
34310;BMP280;61664;48.112;11.662;2024-01-16T04:20:24;94849.53;;;0.37
34310;BMP280;61664;48.112;11.662;2024-01-16T04:22:51;94861.09;;;0.43
34310;BMP280;61664;48.112;11.662;2024-01-16T04:25:18;94833.09;;;0.33
34310;BMP280;61664;48.112;11.662;2024-01-16T04:27:45;94844.88;;;0.48
34310;BMP280;61664;48.112;11.662;2024-01-16T04:30:13;94830.81;;;0.35
34310;BMP280;61664;48.112;11.662;2024-01-16T04:32:40;94850.09;;;0.51
34310;BMP280;61664;48.112;11.662;2024-01-16T04:35:08;94844.53;;;0.46
34310;BMP280;61664;48.112;11.662;2024-01-16T04:37:35;94832.53;;;0.45
34310;BMP280;61664;48.112;11.662;2024-01-16T04:40:03;94842.59;;;0.50
34310;BMP280;61664;48.112;11.662;2024-01-16T04:42:32;94848.97;;;0.49
34310;BMP280;61664;48.112;11.662;2024-01-16T04:44:59;94831.72;;;0.48
34310;BMP280;61664;48.112;11.662;2024-01-16T04:47:26;94848.81;;;0.59
34310;BMP280;61664;48.112;11.662;2024-01-16T04:49:53;94831.31;;;0.49
34310;BMP280;61664;48.112;11.662;2024-01-16T04:52:20;94831.31;;;0.49
34310;BMP280;61664;48.112;11.662;2024-01-16T04:54:47;94829.81;;;0.52
34310;BMP280;61664;48.112;11.662;2024-01-16T04:57:14;94847.72;;;0.61
34310;BMP280;61664;48.112;11.662;2024-01-16T04:59:41;94814.88;;;0.45
34310;BMP280;61664;48.112;11.662;2024-01-16T05:02:08;94834.25;;;0.55
34310;BMP280;61664;48.112;11.662;2024-01-16T05:04:39;94830.50;;;0.56
34310;BMP280;61664;48.112;11.662;2024-01-16T05:07:09;94842.09;;;0.58
34310;BMP280;61664;48.112;11.662;2024-01-16T05:09:36;94836.53;;;0.53
34310;BMP280;61664;48.112;11.662;2024-01-16T05:12:04;94833.94;;;0.49
34310;BMP280;61664;48.112;11.662;2024-01-16T05:14:31;94844.47;;;0.49
34310;BMP280;61664;48.112;11.662;2024-01-16T05:16:58;94850.84;;;0.52
34310;BMP280;61664;48.112;11.662;2024-01-16T05:19:25;94844.94;;;0.44
34310;BMP280;61664;48.112;11.662;2024-01-16T05:21:52;94853.91;;;0.47
34310;BMP280;61664;48.112;11.662;2024-01-16T05:24:19;94847.50;;;0.48
34310;BMP280;61664;48.112;11.662;2024-01-16T05:26:46;94849.38;;;0.47
34310;BMP280;61664;48.112;11.662;2024-01-16T05:29:13;94852.34;;;0.49
34310;BMP280;61664;48.112;11.662;2024-01-16T05:31:41;94844.59;;;0.42
34310;BMP280;61664;48.112;11.662;2024-01-16T05:34:10;94852.41;;;0.46
34310;BMP280;61664;48.112;11.662;2024-01-16T05:36:37;94844.59;;;0.42
34310;BMP280;61664;48.112;11.662;2024-01-16T05:39:04;94852.50;;;0.39
34310;BMP280;61664;48.112;11.662;2024-01-16T05:41:35;94848.78;;;0.36
34310;BMP280;61664;48.112;11.662;2024-01-16T05:44:02;94839.03;;;0.37
34310;BMP280;61664;48.112;11.662;2024-01-16T05:46:32;94834.28;;;0.28
34310;BMP280;61664;48.112;11.662;2024-01-16T05:49:00;94847.41;;;0.32
34310;BMP280;61664;48.112;11.662;2024-01-16T05:51:28;94826.69;;;0.10
34310;BMP280;61664;48.112;11.662;2024-01-16T05:53:56;94842.28;;;0.21
34310;BMP280;61664;48.112;11.662;2024-01-16T05:56:24;94843.03;;;0.21
34310;BMP280;61664;48.112;11.662;2024-01-16T05:58:51;94841.16;;;0.22
34310;BMP280;61664;48.112;11.662;2024-01-16T06:01:19;94852.00;;;0.24
34310;BMP280;61664;48.112;11.662;2024-01-16T06:03:46;94842.66;;;0.19
34310;BMP280;61664;48.112;11.662;2024-01-16T06:06:16;94856.53;;;0.20
34310;BMP280;61664;48.112;11.662;2024-01-16T06:08:43;94840.16;;;0.12
34310;BMP280;61664;48.112;11.662;2024-01-16T06:11:11;94843.94;;;0.11
34310;BMP280;61664;48.112;11.662;2024-01-16T06:13:40;94841.97;;;0.15
34310;BMP280;61664;48.112;11.662;2024-01-16T06:16:08;94855.47;;;0.17
34310;BMP280;61664;48.112;11.662;2024-01-16T06:18:35;94850.53;;;0.19
34310;BMP280;61664;48.112;11.662;2024-01-16T06:21:03;94851.69;;;0.18
34310;BMP280;61664;48.112;11.662;2024-01-16T06:23:31;94844.94;;;0.17
34310;BMP280;61664;48.112;11.662;2024-01-16T06:25:59;94844.19;;;0.20
34310;BMP280;61664;48.112;11.662;2024-01-16T06:28:27;94842.97;;;0.25
34310;BMP280;61664;48.112;11.662;2024-01-16T06:30:54;94842.16;;;0.32
34310;BMP280;61664;48.112;11.662;2024-01-16T06:33:21;94848.47;;;0.34
34310;BMP280;61664;48.112;11.662;2024-01-16T06:35:48;94838.41;;;0.29
34310;BMP280;61664;48.112;11.662;2024-01-16T06:38:20;94844.41;;;0.29
34310;BMP280;61664;48.112;11.662;2024-01-16T06:40:47;94831.41;;;0.19
34310;BMP280;61664;48.112;11.662;2024-01-16T06:43:15;94841.56;;;0.20
34310;BMP280;61664;48.112;11.662;2024-01-16T06:45:43;94831.06;;;0.17
34310;BMP280;61664;48.112;11.662;2024-01-16T06:48:11;94848.66;;;0.20
34310;BMP280;61664;48.112;11.662;2024-01-16T06:50:38;94851.75;;;0.15
34310;BMP280;61664;48.112;11.662;2024-01-16T06:53:05;94858.47;;;0.16
34310;BMP280;61664;48.112;11.662;2024-01-16T06:55:32;94852.88;;;0.14
34310;BMP280;61664;48.112;11.662;2024-01-16T06:57:59;94841.72;;;0.06
34310;BMP280;61664;48.112;11.662;2024-01-16T07:00:26;94841.72;;;0.06
34310;BMP280;61664;48.112;11.662;2024-01-16T07:02:53;94861.84;;;0.16
34310;BMP280;61664;48.112;11.662;2024-01-16T07:05:23;94851.81;;;0.11
34310;BMP280;61664;48.112;11.662;2024-01-16T07:07:50;94848.03;;;0.12
34310;BMP280;61664;48.112;11.662;2024-01-16T07:10:17;94849.81;;;0.19
34310;BMP280;61664;48.112;11.662;2024-01-16T07:12:48;94857.19;;;0.27
34310;BMP280;61664;48.112;11.662;2024-01-16T07:15:16;94860.56;;;0.28
34310;BMP280;61664;48.112;11.662;2024-01-16T07:17:43;94837.06;;;0.17
34310;BMP280;61664;48.112;11.662;2024-01-16T07:22:38;94836.66;;;0.19
34310;BMP280;61664;48.112;11.662;2024-01-16T07:25:08;94844.88;;;0.24
34310;BMP280;61664;48.112;11.662;2024-01-16T07:27:35;94864.97;;;0.35
34310;BMP280;61664;48.112;11.662;2024-01-16T07:30:05;94853.41;;;0.32
34310;BMP280;61664;48.112;11.662;2024-01-16T07:32:33;94859.44;;;0.29
34310;BMP280;61664;48.112;11.662;2024-01-16T07:37:28;94875.00;;;0.40
34310;BMP280;61664;48.112;11.662;2024-01-16T07:39:55;94867.53;;;0.38
34310;BMP280;61664;48.112;11.662;2024-01-16T07:42:22;94868.97;;;0.43
34310;BMP280;61664;48.112;11.662;2024-01-16T07:44:49;94862.28;;;0.38
34310;BMP280;61664;48.112;11.662;2024-01-16T07:47:19;94864.50;;;0.40
34310;BMP280;61664;48.112;11.662;2024-01-16T07:49:57;94867.50;;;0.42
34310;BMP280;61664;48.112;11.662;2024-01-16T07:52:24;94868.97;;;0.43
34310;BMP280;61664;48.112;11.662;2024-01-16T07:54:53;94866.22;;;0.50
34310;BMP280;61664;48.112;11.662;2024-01-16T07:57:21;94844.94;;;0.44
34310;BMP280;61664;48.112;11.662;2024-01-16T07:59:48;94844.88;;;0.48
34310;BMP280;61664;48.112;11.662;2024-01-16T08:02:15;94851.81;;;0.62
34310;BMP280;61664;48.112;11.662;2024-01-16T08:04:42;94858.06;;;0.71
34310;BMP280;61664;48.112;11.662;2024-01-16T08:07:09;94845.34;;;0.66
34310;BMP280;61664;48.112;11.662;2024-01-16T08:09:37;94854.28;;;0.72
34310;BMP280;61664;48.112;11.662;2024-01-16T08:12:05;94857.25;;;0.74
34310;BMP280;61664;48.112;11.662;2024-01-16T08:14:32;94874.34;;;0.86
34310;BMP280;61664;48.112;11.662;2024-01-16T08:16:59;94876.13;;;0.93
34310;BMP280;61664;48.112;11.662;2024-01-16T08:19:26;94865.59;;;0.93
34310;BMP280;61664;48.112;11.662;2024-01-16T08:21:53;94853.97;;;0.90
34310;BMP280;61664;48.112;11.662;2024-01-16T08:24:20;94847.47;;;0.98
34310;BMP280;61664;48.112;11.662;2024-01-16T08:26:47;94843.16;;;1.08
34310;BMP280;61664;48.112;11.662;2024-01-16T08:29:15;94857.25;;;1.21
34310;BMP280;61664;48.112;11.662;2024-01-16T08:31:42;94854.88;;;1.27
34310;BMP280;61664;48.112;11.662;2024-01-16T08:34:08;94852.53;;;1.32
34310;BMP280;61664;48.112;11.662;2024-01-16T08:36:36;94845.63;;;1.38
34310;BMP280;61664;48.112;11.662;2024-01-16T08:39:04;94858.94;;;1.51
34310;BMP280;61664;48.112;11.662;2024-01-16T08:41:32;94852.13;;;1.54
34310;BMP280;61664;48.112;11.662;2024-01-16T08:43:59;94851.91;;;1.64
34310;BMP280;61664;48.112;11.662;2024-01-16T08:46:26;94845.41;;;1.69
34310;BMP280;61664;48.112;11.662;2024-01-16T08:48:53;94845.94;;;1.80
34310;BMP280;61664;48.112;11.662;2024-01-16T08:51:21;94838.91;;;1.93
34310;BMP280;61664;48.112;11.662;2024-01-16T08:53:47;94833.00;;;2.05
34310;BMP280;61664;48.112;11.662;2024-01-16T08:56:15;94846.28;;;2.18
34310;BMP280;61664;48.112;11.662;2024-01-16T08:58:43;94849.84;;;2.28
34310;BMP280;61664;48.112;11.662;2024-01-16T09:01:10;94835.84;;;2.31
34310;BMP280;61664;48.112;11.662;2024-01-16T09:03:37;94829.00;;;2.50
34310;BMP280;61664;48.112;11.662;2024-01-16T09:06:04;94830.53;;;2.80
34310;BMP280;61664;48.112;11.662;2024-01-16T09:08:31;94831.81;;;3.04
34310;BMP280;61664;48.112;11.662;2024-01-16T09:11:00;94829.34;;;3.26
34310;BMP280;61664;48.112;11.662;2024-01-16T09:13:27;94818.50;;;3.37
34310;BMP280;61664;48.112;11.662;2024-01-16T09:18:20;94819.06;;;3.57
34310;BMP280;61664;48.112;11.662;2024-01-16T09:20:48;94833.06;;;3.83
34310;BMP280;61664;48.112;11.662;2024-01-16T09:23:15;94843.75;;;4.05
34310;BMP280;61664;48.112;11.662;2024-01-16T09:25:42;94825.56;;;4.07
34310;BMP280;61664;48.112;11.662;2024-01-16T09:28:14;94828.31;;;4.16
34310;BMP280;61664;48.112;11.662;2024-01-16T09:30:44;94833.81;;;4.34
34310;BMP280;61664;48.112;11.662;2024-01-16T09:33:11;94813.38;;;4.35
34310;BMP280;61664;48.112;11.662;2024-01-16T09:35:39;94831.50;;;4.58
34310;BMP280;61664;48.112;11.662;2024-01-16T09:38:06;94816.78;;;4.57
34310;BMP280;61664;48.112;11.662;2024-01-16T09:40:33;94819.59;;;4.54
34310;BMP280;61664;48.112;11.662;2024-01-16T09:43:00;94821.72;;;4.46
34310;BMP280;61664;48.112;11.662;2024-01-16T09:45:29;94819.25;;;4.39
34310;BMP280;61664;48.112;11.662;2024-01-16T09:47:59;94814.84;;;4.36
34310;BMP280;61664;48.112;11.662;2024-01-16T09:50:27;94825.50;;;4.45
34310;BMP280;61664;48.112;11.662;2024-01-16T09:52:54;94830.81;;;4.45
34310;BMP280;61664;48.112;11.662;2024-01-16T09:55:25;94814.56;;;4.34
34310;BMP280;61664;48.112;11.662;2024-01-16T09:57:53;94827.78;;;4.34
34310;BMP280;61664;48.112;11.662;2024-01-16T10:00:20;94819.72;;;4.25
34310;BMP280;61664;48.112;11.662;2024-01-16T10:02:48;94816.03;;;4.22
34310;BMP280;61664;48.112;11.662;2024-01-16T10:05:16;94818.47;;;4.17
34310;BMP280;61664;48.112;11.662;2024-01-16T10:07:44;94819.19;;;4.17
34310;BMP280;61664;48.112;11.662;2024-01-16T10:10:12;94804.72;;;4.09
34310;BMP280;61664;48.112;11.662;2024-01-16T10:12:40;94783.16;;;3.98
34310;BMP280;61664;48.112;11.662;2024-01-16T10:15:08;94811.25;;;4.17
34310;BMP280;61664;48.112;11.662;2024-01-16T10:17:38;94792.25;;;4.09
34310;BMP280;61664;48.112;11.662;2024-01-16T10:20:07;94797.88;;;4.11
34310;BMP280;61664;48.112;11.662;2024-01-16T10:22:34;94788.22;;;4.05
34310;BMP280;61664;48.112;11.662;2024-01-16T10:27:38;94805.81;;;4.11
34310;BMP280;61664;48.112;11.662;2024-01-16T10:30:06;94794.56;;;4.07
34310;BMP280;61664;48.112;11.662;2024-01-16T10:32:39;94798.69;;;4.21
34310;BMP280;61664;48.112;11.662;2024-01-16T10:35:09;94803.75;;;4.28
34310;BMP280;61664;48.112;11.662;2024-01-16T10:37:55;94785.66;;;4.27
34310;BMP280;61664;48.112;11.662;2024-01-16T10:40:24;94794.44;;;4.36
34310;BMP280;61664;48.112;11.662;2024-01-16T10:43:01;94781.66;;;4.35
34310;BMP280;61664;48.112;11.662;2024-01-16T10:45:28;94783.72;;;4.40
34310;BMP280;61664;48.112;11.662;2024-01-16T10:48:08;94774.66;;;4.41
34310;BMP280;61664;48.112;11.662;2024-01-16T10:50:37;94787.19;;;4.50
34310;BMP280;61664;48.112;11.662;2024-01-16T10:53:07;94764.56;;;4.49
34310;BMP280;61664;48.112;11.662;2024-01-16T10:55:43;94778.88;;;4.51
34310;BMP280;61664;48.112;11.662;2024-01-16T10:58:16;94763.81;;;4.48
34310;BMP280;61664;48.112;11.662;2024-01-16T11:00:50;94765.94;;;4.53
34310;BMP280;61664;48.112;11.662;2024-01-16T11:03:55;94771.72;;;4.61
34310;BMP280;61664;48.112;11.662;2024-01-16T11:06:24;94777.22;;;4.66
34310;BMP280;61664;48.112;11.662;2024-01-16T11:08:53;94766.19;;;4.68
34310;BMP280;61664;48.112;11.662;2024-01-16T11:11:23;94781.13;;;4.74
34310;BMP280;61664;48.112;11.662;2024-01-16T11:13:51;94765.88;;;4.66
34310;BMP280;61664;48.112;11.662;2024-01-16T11:16:19;94775.50;;;4.72
34310;BMP280;61664;48.112;11.662;2024-01-16T11:18:47;94776.56;;;4.75
34310;BMP280;61664;48.112;11.662;2024-01-16T11:21:16;94767.72;;;4.78
34310;BMP280;61664;48.112;11.662;2024-01-16T11:23:45;94758.63;;;4.79
34310;BMP280;61664;48.112;11.662;2024-01-16T11:26:34;94754.28;;;4.85
34310;BMP280;61664;48.112;11.662;2024-01-16T11:31:57;94742.22;;;4.84
34310;BMP280;61664;48.112;11.662;2024-01-16T11:37:13;94733.63;;;4.80
34310;BMP280;61664;48.112;11.662;2024-01-16T11:39:40;94742.81;;;4.88
34310;BMP280;61664;48.112;11.662;2024-01-16T11:42:07;94725.59;;;4.84
34310;BMP280;61664;48.112;11.662;2024-01-16T11:44:50;94724.94;;;4.80
34310;BMP280;61664;48.112;11.662;2024-01-16T11:47:19;94718.78;;;4.73
34310;BMP280;61664;48.112;11.662;2024-01-16T11:49:49;94732.50;;;4.81
34310;BMP280;61664;48.112;11.662;2024-01-16T11:52:43;94726.03;;;4.82
34310;BMP280;61664;48.112;11.662;2024-01-16T11:55:32;94723.25;;;4.86
34310;BMP280;61664;48.112;11.662;2024-01-16T12:00:45;94728.16;;;4.96
34310;BMP280;61664;48.112;11.662;2024-01-16T12:03:21;94731.41;;;5.00
34310;BMP280;61664;48.112;11.662;2024-01-16T12:06:01;94719.13;;;5.06
34310;BMP280;61664;48.112;11.662;2024-01-16T12:08:30;94718.19;;;5.22
34310;BMP280;61664;48.112;11.662;2024-01-16T12:10:57;94705.97;;;5.25
34310;BMP280;61664;48.112;11.662;2024-01-16T12:13:26;94694.22;;;5.26
34310;BMP280;61664;48.112;11.662;2024-01-16T12:16:03;94701.88;;;5.33
34310;BMP280;61664;48.112;11.662;2024-01-16T12:18:32;94680.97;;;5.26
34310;BMP280;61664;48.112;11.662;2024-01-16T12:21:11;94682.44;;;5.27
34310;BMP280;61664;48.112;11.662;2024-01-16T12:23:38;94683.03;;;5.31
34310;BMP280;61664;48.112;11.662;2024-01-16T12:26:22;94658.56;;;5.18
34310;BMP280;61664;48.112;11.662;2024-01-16T12:28:53;94667.97;;;5.19
34310;BMP280;61664;48.112;11.662;2024-01-16T12:31:27;94660.16;;;5.15
34310;BMP280;61664;48.112;11.662;2024-01-16T12:34:05;94653.81;;;5.03
34310;BMP280;61664;48.112;11.662;2024-01-16T12:36:36;94654.25;;;5.11
34310;BMP280;61664;48.112;11.662;2024-01-16T12:39:03;94647.66;;;5.16
34310;BMP280;61664;48.112;11.662;2024-01-16T12:41:40;94639.47;;;5.23
34310;BMP280;61664;48.112;11.662;2024-01-16T12:44:10;94651.72;;;5.38
34310;BMP280;61664;48.112;11.662;2024-01-16T12:46:56;94636.47;;;5.52
34310;BMP280;61664;48.112;11.662;2024-01-16T12:49:24;94644.00;;;5.72
34310;BMP280;61664;48.112;11.662;2024-01-16T12:51:51;94647.56;;;5.87
34310;BMP280;61664;48.112;11.662;2024-01-16T12:54:38;94634.16;;;5.99
34310;BMP280;61664;48.112;11.662;2024-01-16T12:57:05;94640.63;;;6.08
34310;BMP280;61664;48.112;11.662;2024-01-16T12:59:33;94640.50;;;6.11
34310;BMP280;61664;48.112;11.662;2024-01-16T13:02:00;94626.34;;;6.05
34310;BMP280;61664;48.112;11.662;2024-01-16T13:04:27;94629.91;;;6.11
34310;BMP280;61664;48.112;11.662;2024-01-16T13:07:04;94638.00;;;6.17
34310;BMP280;61664;48.112;11.662;2024-01-16T13:09:32;94633.13;;;6.15
34310;BMP280;61664;48.112;11.662;2024-01-16T13:11:59;94626.91;;;6.18
34310;BMP280;61664;48.112;11.662;2024-01-16T13:14:27;94625.91;;;6.25
34310;BMP280;61664;48.112;11.662;2024-01-16T13:16:54;94621.75;;;6.33
34310;BMP280;61664;48.112;11.662;2024-01-16T13:19:23;94606.31;;;6.31
34310;BMP280;61664;48.112;11.662;2024-01-16T13:21:51;94615.13;;;6.38
34310;BMP280;61664;48.112;11.662;2024-01-16T13:24:18;94605.09;;;6.32
34310;BMP280;61664;48.112;11.662;2024-01-16T13:26:49;94595.22;;;6.33
34310;BMP280;61664;48.112;11.662;2024-01-16T13:29:17;94597.25;;;6.47
34310;BMP280;61664;48.112;11.662;2024-01-16T13:31:44;94581.38;;;6.38
34310;BMP280;61664;48.112;11.662;2024-01-16T13:34:11;94589.31;;;6.38
34310;BMP280;61664;48.112;11.662;2024-01-16T13:36:39;94601.72;;;6.32
34310;BMP280;61664;48.112;11.662;2024-01-16T13:39:26;94601.88;;;6.19
34310;BMP280;61664;48.112;11.662;2024-01-16T13:41:54;94597.47;;;6.16
34310;BMP280;61664;48.112;11.662;2024-01-16T13:44:21;94587.75;;;6.13
34310;BMP280;61664;48.112;11.662;2024-01-16T13:46:48;94593.66;;;6.17
34310;BMP280;61664;48.112;11.662;2024-01-16T13:49:32;94591.25;;;6.19
34310;BMP280;61664;48.112;11.662;2024-01-16T13:52:00;94591.56;;;6.21
34310;BMP280;61664;48.112;11.662;2024-01-16T13:54:27;94570.66;;;6.14
34310;BMP280;61664;48.112;11.662;2024-01-16T13:56:54;94586.28;;;6.21
34310;BMP280;61664;48.112;11.662;2024-01-16T13:59:33;94594.66;;;6.29
34310;BMP280;61664;48.112;11.662;2024-01-16T14:02:02;94592.31;;;6.22
34310;BMP280;61664;48.112;11.662;2024-01-16T14:04:31;94602.03;;;6.25
34310;BMP280;61664;48.112;11.662;2024-01-16T14:06:58;94590.06;;;6.20
34310;BMP280;61664;48.112;11.662;2024-01-16T14:09:40;94589.69;;;6.13
34310;BMP280;61664;48.112;11.662;2024-01-16T14:12:13;94592.59;;;6.06
34310;BMP280;61664;48.112;11.662;2024-01-16T14:14:41;94606.59;;;6.06
34310;BMP280;61664;48.112;11.662;2024-01-16T14:17:09;94617.19;;;6.06
34310;BMP280;61664;48.112;11.662;2024-01-16T14:19:37;94596.44;;;5.95
34310;BMP280;61664;48.112;11.662;2024-01-16T14:22:06;94602.94;;;5.94
34310;BMP280;61664;48.112;11.662;2024-01-16T14:24:33;94607.94;;;5.92
34310;BMP280;61664;48.112;11.662;2024-01-16T14:27:00;94594.06;;;5.79
34310;BMP280;61664;48.112;11.662;2024-01-16T14:29:28;94587.91;;;5.73
34310;BMP280;61664;48.112;11.662;2024-01-16T14:31:55;94592.78;;;5.75
34310;BMP280;61664;48.112;11.662;2024-01-16T14:34:25;94586.28;;;5.66
34310;BMP280;61664;48.112;11.662;2024-01-16T14:36:53;94593.78;;;5.68
34310;BMP280;61664;48.112;11.662;2024-01-16T14:39:20;94594.97;;;5.58
34310;BMP280;61664;48.112;11.662;2024-01-16T14:41:53;94586.84;;;5.52